Time;durP1;ratioP1;P1;durP2;ratioP2;P2;SDS_P1;SDS_P2;PMS_P1;PMS_P2;Temp;Humidity;BMP_temperature;BMP_pressure;BME280_temperature;BME280_humidity;BME280_pressure;Samples;Min_cycle;Max_cycle;Signal;HPM_P1;HPM_P2
2022/05/15 00:02:25;;;;;;;1.85;1.38;;;;;;;;;;6129128;23;20080;-72
2022/05/15 00:04:51;;;;;;;0.85;0.57;;;;;;;;;;6129246;23;20383;-72
2022/05/15 00:07:16;;;;;;;1.73;0.70;;;;;;;;;;6128022;23;20005;-72
2022/05/15 00:09:47;;;;;;;1.13;1.08;;;;;;;;;;6128657;23;20002;-73
2022/05/15 00:12:12;;;;;;;0.80;0.60;;;;;;;;;;6129107;23;20002;-73
2022/05/15 00:14:38;;;;;;;5.15;2.05;;;;;;;;;;6127522;23;20032;-73
2022/05/15 00:17:06;;;;;;;1.25;1.13;;;;;;;;;;6128805;23;20077;-73
2022/05/15 00:19:31;;;;;;;1.27;0.88;;;;;;;;;;6129007;23;20021;-73
2022/05/15 00:22:09;;;;;;;0.70;0.70;;;;;;;;;;6128839;23;20298;-73
2022/05/15 00:24:35;;;;;;;0.28;0.28;;;;;;;;;;6128581;23;20010;-73
2022/05/15 00:27:03;;;;;;;1.45;0.82;;;;;;;;;;6126299;23;20025;-72
2022/05/15 00:29:30;;;;;;;1.50;0.98;;;;;;;;;;6127657;23;20077;-72
2022/05/15 00:31:58;;;;;;;0.75;0.75;;;;;;;;;;6103468;23;20012;-72
2022/05/15 00:34:28;;;;;;;0.85;0.77;;;;;;;;;;6128626;23;20417;-72
2022/05/15 00:36:55;;;;;;;3.55;0.73;;;;;;;;;;6128296;23;20033;-72
2022/05/15 00:39:23;;;;;;;0.73;0.73;;;;;;;;;;6128889;23;20002;-73
2022/05/15 00:41:48;;;;;;;3.38;0.82;;;;;;;;;;6128957;23;20010;-73
2022/05/15 00:44:16;;;;;;;0.68;0.68;;;;;;;;;;6128902;23;20393;-73
2022/05/15 00:46:42;;;;;;;2.42;1.50;;;;;;;;;;6127466;23;20421;-73
2022/05/15 00:49:13;;;;;;;0.65;0.65;;;;;;;;;;6128453;23;20002;-73
2022/05/15 00:51:56;;;;;;;0.63;0.63;;;;;;;;;;6127420;23;20409;-73
2022/05/15 00:54:26;;;;;;;1.13;1.02;;;;;;;;;;6127497;23;20615;-73
2022/05/15 00:57:07;;;;;;;3.53;1.65;;;;;;;;;;6128758;23;20010;-73
2022/05/15 00:59:37;;;;;;;2.83;1.20;;;;;;;;;;6128489;23;20009;-72
2022/05/15 01:02:02;;;;;;;1.60;1.50;;;;;;;;;;6128754;23;20033;-73
2022/05/15 01:04:28;;;;;;;2.10;1.45;;;;;;;;;;6127768;23;20006;-73
2022/05/15 01:06:54;;;;;;;8.25;1.23;;;;;;;;;;6128726;23;20049;-73
2022/05/15 01:09:19;;;;;;;0.17;0.17;;;;;;;;;;6128435;23;20016;-73
2022/05/15 01:11:46;;;;;;;0.55;0.55;;;;;;;;;;6128323;23;20016;-72
2022/05/15 01:14:13;;;;;;;1.42;1.23;;;;;;;;;;6151294;23;20060;-72
2022/05/15 01:16:39;;;;;;;0.50;0.50;;;;;;;;;;6127032;23;20013;-72
2022/05/15 01:19:05;;;;;;;8.70;1.70;;;;;;;;;;6127443;23;20002;-72
2022/05/15 01:21:35;;;;;;;0.65;0.65;;;;;;;;;;6127410;23;20287;-72
2022/05/15 01:24:04;;;;;;;1.20;0.43;;;;;;;;;;6128385;23;20061;-72
2022/05/15 01:26:30;;;;;;;0.30;0.30;;;;;;;;;;6126816;23;20017;-72
2022/05/15 01:28:58;;;;;;;3.65;1.02;;;;;;;;;;6151870;23;20010;-72
2022/05/15 01:31:25;;;;;;;3.45;0.77;;;;;;;;;;6151405;23;20012;-72
2022/05/15 01:33:53;;;;;;;2.00;1.50;;;;;;;;;;6127298;23;20052;-72
2022/05/15 01:36:20;;;;;;;0.60;0.60;;;;;;;;;;6126893;23;20014;-72
2022/05/15 01:38:46;;;;;;;0.35;0.35;;;;;;;;;;6127337;23;20005;-72
2022/05/15 01:41:12;;;;;;;1.10;0.70;;;;;;;;;;6127981;23;20077;-72
2022/05/15 01:43:43;;;;;;;2.38;1.00;;;;;;;;;;6128353;23;20001;-72
2022/05/15 01:46:12;;;;;;;1.40;1.13;;;;;;;;;;6126944;23;20073;-72
2022/05/15 01:48:38;;;;;;;1.67;1.58;;;;;;;;;;6151377;23;20339;-72
2022/05/15 01:51:04;;;;;;;1.95;1.13;;;;;;;;;;6127232;23;20077;-72
2022/05/15 01:53:29;;;;;;;1.08;1.00;;;;;;;;;;6127219;23;20093;-72
2022/05/15 01:55:54;;;;;;;5.43;2.03;;;;;;;;;;6127574;23;20002;-72
2022/05/15 01:58:20;;;;;;;1.00;0.95;;;;;;;;;;6127836;23;20099;-72
2022/05/15 02:00:45;;;;;;;1.55;1.33;;;;;;;;;;6129136;23;20033;-73
2022/05/15 02:03:10;;;;;;;1.60;1.20;;;;;;;;;;6128260;23;20183;-72
2022/05/15 02:05:38;;;;;;;0.47;0.47;;;;;;;;;;6128185;23;20041;-72
2022/05/15 02:08:04;;;;;;;0.50;0.50;;;;;;;;;;6127897;23;20302;-72
2022/05/15 02:10:29;;;;;;;2.42;1.33;;;;;;;;;;6126686;23;20002;-72
2022/05/15 02:12:55;;;;;;;1.45;1.08;;;;;;;;;;6128006;23;20010;-72
2022/05/15 02:15:23;;;;;;;3.15;1.05;;;;;;;;;;6128121;23;20006;-72
2022/05/15 02:17:52;;;;;;;0.57;0.50;;;;;;;;;;6127815;23;20056;-72
2022/05/15 02:20:18;;;;;;;1.75;1.30;;;;;;;;;;6127961;23;20005;-72
2022/05/15 02:22:43;;;;;;;1.75;1.23;;;;;;;;;;6126856;23;20006;-72
2022/05/15 02:25:10;;;;;;;0.57;0.50;;;;;;;;;;6127705;23;20002;-72
2022/05/15 02:27:36;;;;;;;0.77;0.70;;;;;;;;;;6127423;23;20002;-72
2022/05/15 02:30:03;;;;;;;4.22;1.48;;;;;;;;;;6128293;23;20024;-72
2022/05/15 02:32:28;;;;;;;3.83;1.33;;;;;;;;;;6128114;23;20006;-72
2022/05/15 02:34:54;;;;;;;0.82;0.55;;;;;;;;;;6127919;23;20350;-72
2022/05/15 02:37:19;;;;;;;2.00;1.40;;;;;;;;;;6127655;23;20002;-72
2022/05/15 02:39:45;;;;;;;1.38;1.05;;;;;;;;;;6127712;23;20353;-72
2022/05/15 02:42:12;;;;;;;1.38;1.08;;;;;;;;;;6127641;23;20449;-72
2022/05/15 02:44:38;;;;;;;0.52;0.52;;;;;;;;;;6127794;23;20002;-72
2022/05/15 02:47:07;;;;;;;1.08;0.93;;;;;;;;;;6127566;23;20001;-72
2022/05/15 02:52:19;;;;;;;0.98;0.93;;;;;;;;;;6127790;23;20020;-72
2022/05/15 02:54:45;;;;;;;0.63;0.63;;;;;;;;;;6127843;23;20006;-72
2022/05/15 02:57:11;;;;;;;1.42;1.33;;;;;;;;;;6127353;23;20081;-72
2022/05/15 02:59:37;;;;;;;1.05;0.70;;;;;;;;;;6127083;23;20056;-72
2022/05/15 03:02:03;;;;;;;1.88;0.90;;;;;;;;;;6127638;23;20033;-72
2022/05/15 03:04:29;;;;;;;1.02;0.93;;;;;;;;;;6126692;23;20009;-72
2022/05/15 03:06:54;;;;;;;2.25;0.85;;;;;;;;;;6127681;23;20009;-72
2022/05/15 03:09:22;;;;;;;0.85;0.73;;;;;;;;;;6127251;23;20279;-72
2022/05/15 03:11:50;;;;;;;3.70;2.30;;;;;;;;;;6127419;23;20012;-72
2022/05/15 03:14:15;;;;;;;1.48;1.00;;;;;;;;;;6127595;23;20006;-71
2022/05/15 03:16:41;;;;;;;1.17;1.08;;;;;;;;;;6127636;23;20041;-72
2022/05/15 03:19:06;;;;;;;1.55;1.20;;;;;;;;;;6101313;23;20012;-72
2022/05/15 03:21:32;;;;;;;2.65;2.45;;;;;;;;;;6127435;23;20005;-72
2022/05/15 03:24:01;;;;;;;0.88;0.88;;;;;;;;;;6127635;23;20434;-72
2022/05/15 03:26:27;;;;;;;1.80;1.17;;;;;;;;;;6127093;23;20005;-72
2022/05/15 03:28:56;;;;;;;1.30;1.20;;;;;;;;;;6127502;23;20013;-73
2022/05/15 03:31:21;;;;;;;0.90;0.90;;;;;;;;;;6150625;23;20036;-72
2022/05/15 03:33:47;;;;;;;1.52;0.98;;;;;;;;;;6126371;23;20002;-72
2022/05/15 03:36:13;;;;;;;2.08;1.45;;;;;;;;;;6127473;23;19998;-73
2022/05/15 03:38:43;;;;;;;0.82;0.70;;;;;;;;;;6127474;23;20006;-73
2022/05/15 03:41:10;;;;;;;2.67;1.42;;;;;;;;;;6127287;23;20033;-73
2022/05/15 03:43:39;;;;;;;1.05;0.95;;;;;;;;;;6126237;23;20069;-73
2022/05/15 03:46:06;;;;;;;1.10;0.82;;;;;;;;;;6127591;23;20001;-73
2022/05/15 03:48:31;;;;;;;1.95;1.42;;;;;;;;;;6127342;23;20006;-73
2022/05/15 03:50:59;;;;;;;1.17;1.02;;;;;;;;;;6125988;23;20101;-73
2022/05/15 03:53:25;;;;;;;3.03;2.45;;;;;;;;;;6127636;23;20002;-73
2022/05/15 03:55:55;;;;;;;1.60;1.50;;;;;;;;;;6126965;23;20001;-73
2022/05/15 03:58:21;;;;;;;2.05;1.00;;;;;;;;;;6126992;23;20013;-73
2022/05/15 04:00:47;;;;;;;17.42;2.05;;;;;;;;;;6126034;23;20306;-73
2022/05/15 04:03:12;;;;;;;1.00;0.93;;;;;;;;;;6128746;23;20002;-72
2022/05/15 04:05:38;;;;;;;2.08;1.50;;;;;;;;;;6128150;23;20040;-73
2022/05/15 04:08:03;;;;;;;2.50;1.45;;;;;;;;;;6129257;23;19998;-72
2022/05/15 04:10:31;;;;;;;1.77;1.23;;;;;;;;;;6128917;23;20002;-72
2022/05/15 04:12:57;;;;;;;1.58;1.48;;;;;;;;;;6103501;23;20314;-72
2022/05/15 04:15:22;;;;;;;1.20;1.10;;;;;;;;;;6129372;23;20002;-72
2022/05/15 04:17:49;;;;;;;0.85;0.85;;;;;;;;;;6127961;23;20034;-72
2022/05/15 04:20:21;;;;;;;1.20;1.10;;;;;;;;;;6128069;23;20029;-72
2022/05/15 04:22:46;;;;;;;1.07;0.97;;;;;;;;;;6129505;23;20032;-72
2022/05/15 04:25:12;;;;;;;2.40;1.85;;;;;;;;;;6128193;23;20013;-72
2022/05/15 04:27:43;;;;;;;1.88;1.50;;;;;;;;;;6127476;23;20077;-73
2022/05/15 04:30:16;;;;;;;1.05;0.85;;;;;;;;;;6128960;23;19997;-72
2022/05/15 04:32:44;;;;;;;3.90;1.55;;;;;;;;;;6152505;23;20002;-72
2022/05/15 04:35:10;;;;;;;0.80;0.80;;;;;;;;;;6129233;23;19998;-72
2022/05/15 04:37:35;;;;;;;1.08;1.08;;;;;;;;;;6151385;23;20012;-72
2022/05/15 04:40:01;;;;;;;1.40;1.30;;;;;;;;;;6128527;23;20694;-72
2022/05/15 04:42:26;;;;;;;2.65;1.65;;;;;;;;;;6127637;23;20028;-72
2022/05/15 04:44:52;;;;;;;1.30;1.20;;;;;;;;;;6129065;23;20346;-72
2022/05/15 04:47:19;;;;;;;0.90;0.90;;;;;;;;;;6128546;23;20067;-72
2022/05/15 04:49:49;;;;;;;1.45;0.82;;;;;;;;;;6127466;23;20006;-72
2022/05/15 04:52:15;;;;;;;2.13;2.00;;;;;;;;;;6128663;23;20009;-72
2022/05/15 04:54:40;;;;;;;0.30;0.30;;;;;;;;;;6128923;23;20001;-72
2022/05/15 04:57:05;;;;;;;2.75;2.03;;;;;;;;;;6128304;23;20006;-73
2022/05/15 04:59:31;;;;;;;3.17;0.80;;;;;;;;;;6128895;23;20306;-72
2022/05/15 05:01:58;;;;;;;0.52;0.52;;;;;;;;;;6128796;23;20006;-72
2022/05/15 05:04:24;;;;;;;1.33;1.20;;;;;;;;;;6127484;23;20406;-72
2022/05/15 05:06:51;;;;;;;2.70;1.42;;;;;;;;;;6128694;23;19998;-72
2022/05/15 05:09:19;;;;;;;1.17;1.08;;;;;;;;;;6128113;23;20006;-72
2022/05/15 05:11:46;;;;;;;0.70;0.70;;;;;;;;;;6127521;23;20037;-72
2022/05/15 05:14:14;;;;;;;1.20;1.13;;;;;;;;;;6128347;23;20010;-73
2022/05/15 05:16:39;;;;;;;2.00;1.10;;;;;;;;;;6128531;23;20006;-72
2022/05/15 05:19:07;;;;;;;1.73;1.35;;;;;;;;;;6127556;23;20447;-72
2022/05/15 05:21:32;;;;;;;1.25;0.90;;;;;;;;;;6128305;23;20002;-72
2022/05/15 05:23:58;;;;;;;1.80;1.70;;;;;;;;;;6128363;23;20012;-71
2022/05/15 05:26:23;;;;;;;1.17;1.05;;;;;;;;;;6128559;23;20338;-72
2022/05/15 05:28:48;;;;;;;1.10;0.85;;;;;;;;;;6128568;23;20394;-72
2022/05/15 05:31:14;;;;;;;1.20;1.10;;;;;;;;;;6128515;23;20017;-72
2022/05/15 05:33:40;;;;;;;1.13;0.98;;;;;;;;;;6126571;23;20002;-72
2022/05/15 05:36:06;;;;;;;0.80;0.75;;;;;;;;;;6128251;23;20057;-72
2022/05/15 05:38:34;;;;;;;2.25;2.03;;;;;;;;;;6127156;23;20034;-72
2022/05/15 05:41:00;;;;;;;2.28;1.42;;;;;;;;;;6127233;23;20016;-72
2022/05/15 05:43:25;;;;;;;1.08;0.93;;;;;;;;;;6151566;23;20302;-72
2022/05/15 05:45:53;;;;;;;1.02;0.90;;;;;;;;;;6128095;23;20010;-72
2022/05/15 05:48:20;;;;;;;1.50;1.33;;;;;;;;;;6127206;23;20025;-72
2022/05/15 05:50:46;;;;;;;1.23;1.13;;;;;;;;;;6128254;23;20005;-72
2022/05/15 05:53:11;;;;;;;1.17;0.75;;;;;;;;;;6128088;23;20020;-72
2022/05/15 05:55:37;;;;;;;0.90;0.90;;;;;;;;;;6151404;23;20279;-72
2022/05/15 05:58:02;;;;;;;2.15;1.38;;;;;;;;;;6128173;23;20022;-73
2022/05/15 06:00:30;;;;;;;1.27;1.17;;;;;;;;;;6127098;23;20110;-72
2022/05/15 06:05:43;;;;;;;3.00;1.20;;;;;;;;;;6127976;23;20068;-72
2022/05/15 06:08:11;;;;;;;1.70;1.20;;;;;;;;;;6127787;23;20017;-72
2022/05/15 06:10:36;;;;;;;1.45;0.75;;;;;;;;;;6128066;23;20453;-73
2022/05/15 06:13:04;;;;;;;1.10;1.08;;;;;;;;;;6127919;23;20033;-72
2022/05/15 06:15:29;;;;;;;1.98;0.93;;;;;;;;;;6127130;23;20493;-73
2022/05/15 06:17:59;;;;;;;0.70;0.68;;;;;;;;;;6127455;23;20033;-73
2022/05/15 06:20:25;;;;;;;0.52;0.52;;;;;;;;;;6128021;23;19998;-73
2022/05/15 06:22:50;;;;;;;0.98;0.95;;;;;;;;;;6128129;23;20398;-72
2022/05/15 06:25:16;;;;;;;0.40;0.40;;;;;;;;;;6126228;23;20020;-72
2022/05/15 06:27:41;;;;;;;0.40;0.40;;;;;;;;;;6128078;23;20005;-72
2022/05/15 06:30:08;;;;;;;1.20;1.02;;;;;;;;;;6127876;23;20005;-72
2022/05/15 06:32:34;;;;;;;1.17;0.68;;;;;;;;;;6126810;23;20073;-72
2022/05/15 06:34:59;;;;;;;0.73;0.68;;;;;;;;;;6127842;23;20006;-73
2022/05/15 06:37:24;;;;;;;1.27;0.57;;;;;;;;;;6127610;23;20006;-73
2022/05/15 06:39:55;;;;;;;2.80;1.88;;;;;;;;;;6127456;23;20283;-71
2022/05/15 06:42:20;;;;;;;1.75;0.52;;;;;;;;;;6127898;23;20350;-71
2022/05/15 06:44:45;;;;;;;1.05;1.00;;;;;;;;;;6127877;23;20068;-71
2022/05/15 06:47:16;;;;;;;0.50;0.50;;;;;;;;;;6126359;23;20183;-71
2022/05/15 06:49:44;;;;;;;0.63;0.63;;;;;;;;;;6127601;23;20013;-71
2022/05/15 06:52:09;;;;;;;5.13;0.93;;;;;;;;;;6127672;23;20361;-71
2022/05/15 06:54:37;;;;;;;1.23;1.02;;;;;;;;;;6126520;23;20061;-71
2022/05/15 06:59:46;;;;;;;0.93;0.82;;;;;;;;;;6127430;23;20016;-71
2022/05/15 07:02:14;;;;;;;0.77;0.77;;;;;;;;;;6126609;23;20009;-71
2022/05/15 07:04:39;;;;;;;0.60;0.60;;;;;;;;;;6127630;23;20002;-71
2022/05/15 07:07:08;;;;;;;2.67;1.00;;;;;;;;;;6127461;23;20024;-71
2022/05/15 07:09:33;;;;;;;1.92;1.13;;;;;;;;;;6101737;23;20006;-71
2022/05/15 07:12:02;;;;;;;4.47;1.65;;;;;;;;;;6126099;23;20457;-71
2022/05/15 07:14:28;;;;;;;2.28;1.90;;;;;;;;;;6127457;23;20402;-71
2022/05/15 07:16:54;;;;;;;1.17;0.82;;;;;;;;;;6125750;23;20002;-71
2022/05/15 07:19:19;;;;;;;4.55;1.00;;;;;;;;;;6127765;23;20469;-72
2022/05/15 07:21:45;;;;;;;0.85;0.73;;;;;;;;;;6127318;23;20001;-71
2022/05/15 07:24:12;;;;;;;5.32;1.35;;;;;;;;;;6126730;23;20006;-71
2022/05/15 07:26:44;;;;;;;2.75;1.67;;;;;;;;;;6126078;23;19994;-71
2022/05/15 07:29:15;;;;;;;1.42;1.33;;;;;;;;;;6127706;23;20006;-71
2022/05/15 07:31:41;;;;;;;1.25;0.90;;;;;;;;;;6125787;23;20001;-71
2022/05/15 07:34:09;;;;;;;3.40;1.35;;;;;;;;;;6127689;23;20006;-71
2022/05/15 07:36:34;;;;;;;0.75;0.75;;;;;;;;;;6126556;23;20088;-72
2022/05/15 07:39:02;;;;;;;1.38;1.20;;;;;;;;;;6129174;23;20544;-71
2022/05/15 07:41:28;;;;;;;0.57;0.40;;;;;;;;;;6129552;23;20081;-71
2022/05/15 07:43:54;;;;;;;0.75;0.75;;;;;;;;;;6129070;23;20349;-71
2022/05/15 07:46:19;;;;;;;2.25;1.33;;;;;;;;;;6129645;23;20421;-71
2022/05/15 07:48:44;;;;;;;1.30;1.10;;;;;;;;;;6129262;23;20006;-71
2022/05/15 07:51:10;;;;;;;1.58;1.48;;;;;;;;;;6129450;23;20006;-72
2022/05/15 07:53:38;;;;;;;2.00;0.75;;;;;;;;;;6129133;23;20017;-72
2022/05/15 07:56:05;;;;;;;0.70;0.63;;;;;;;;;;6128851;23;20013;-71
2022/05/15 07:58:32;;;;;;;0.50;0.50;;;;;;;;;;6129316;23;20014;-72
2022/05/15 08:01:03;;;;;;;1.83;1.08;;;;;;;;;;6128094;23;20001;-72
2022/05/15 08:03:33;;;;;;;2.20;1.15;;;;;;;;;;6129339;23;20013;-72
2022/05/15 08:08:45;;;;;;;1.15;0.63;;;;;;;;;;6129151;23;20020;-71
2022/05/15 08:11:10;;;;;;;0.40;0.40;;;;;;;;;;6129022;23;20005;-71
2022/05/15 08:13:36;;;;;;;0.45;0.43;;;;;;;;;;6129071;23;20093;-71
2022/05/15 08:16:01;;;;;;;2.85;0.60;;;;;;;;;;6128627;23;20403;-72
2022/05/15 08:24:00;;;;;;;0.38;0.38;;;;;;;;;;6128817;23;20321;-72
2022/05/15 08:26:26;;;;;;;5.97;1.75;;;;;;;;;;6127728;23;20002;-72
2022/05/15 08:28:52;;;;;;;1.67;1.48;;;;;;;;;;6103463;23;20466;-72
2022/05/15 08:31:24;;;;;;;2.20;0.73;;;;;;;;;;6127480;23;20089;-71
2022/05/15 08:33:52;;;;;;;1.95;0.90;;;;;;;;;;6151246;23;20006;-72
2022/05/15 08:36:18;;;;;;;2.42;1.13;;;;;;;;;;6152335;23;20069;-72
2022/05/15 08:38:48;;;;;;;0.90;0.65;;;;;;;;;;6128828;23;20014;-73
2022/05/15 08:41:31;;;;;;;2.22;0.95;;;;;;;;;;6130595;23;20009;-74
2022/05/15 08:44:32;;;;;;;0.38;0.38;;;;;;;;;;6128035;23;20148;-74
2022/05/15 08:47:08;;;;;;;1.60;1.17;;;;;;;;;;6128443;23;20010;-72
2022/05/15 08:49:33;;;;;;;1.48;0.60;;;;;;;;;;6128665;23;20232;-72
2022/05/15 08:52:05;;;;;;;0.40;0.40;;;;;;;;;;6128791;23;20002;-72
2022/05/15 08:54:36;;;;;;;0.60;0.60;;;;;;;;;;6128067;23;20006;-72
2022/05/15 08:57:03;;;;;;;0.28;0.25;;;;;;;;;;6127423;23;20034;-72
2022/05/15 08:59:43;;;;;;;1.05;0.95;;;;;;;;;;6126730;23;20394;-72
2022/05/15 09:02:10;;;;;;;3.97;0.77;;;;;;;;;;6151883;23;20302;-72
2022/05/15 09:04:36;;;;;;;3.33;0.95;;;;;;;;;;6151678;23;20040;-72
2022/05/15 09:07:08;;;;;;;0.68;0.68;;;;;;;;;;6128164;23;20005;-72
2022/05/15 09:09:53;;;;;;;0.82;0.82;;;;;;;;;;6128489;23;20009;-72
2022/05/15 09:12:21;;;;;;;5.78;0.95;;;;;;;;;;6128273;23;20001;-72
2022/05/15 09:15:13;;;;;;;2.92;0.32;;;;;;;;;;6128244;23;20461;-72
2022/05/15 09:17:42;;;;;;;0.40;0.40;;;;;;;;;;6123390;23;20010;-72
2022/05/15 09:20:18;;;;;;;1.58;0.80;;;;;;;;;;6128062;23;20286;-72
2022/05/15 09:22:53;;;;;;;1.67;1.15;;;;;;;;;;6127201;23;20006;-72
2022/05/15 09:25:22;;;;;;;0.98;0.70;;;;;;;;;;6152149;23;20012;-72
2022/05/15 09:28:12;;;;;;;1.05;0.60;;;;;;;;;;6127351;23;20009;-72
2022/05/15 09:30:43;;;;;;;1.00;0.90;;;;;;;;;;6128525;23;20030;-72
2022/05/15 09:33:25;;;;;;;7.53;1.25;;;;;;;;;;6128229;23;20005;-72
2022/05/15 09:35:50;;;;;;;1.20;0.73;;;;;;;;;;6127548;23;20002;-72
2022/05/15 09:38:28;;;;;;;2.50;1.30;;;;;;;;;;6102468;23;20035;-72
2022/05/15 09:43:57;;;;;;;0.88;0.68;;;;;;;;;;6127034;23;20081;-72
2022/05/15 09:46:25;;;;;;;1.55;0.75;;;;;;;;;;6126911;23;20009;-72
2022/05/15 09:49:03;;;;;;;0.95;0.88;;;;;;;;;;6151689;23;20009;-72
2022/05/15 09:51:48;;;;;;;1.13;0.68;;;;;;;;;;6127048;23;20085;-72
2022/05/15 09:54:29;;;;;;;0.47;0.47;;;;;;;;;;6126715;23;20092;-73
2022/05/15 09:57:17;;;;;;;1.15;1.02;;;;;;;;;;6127076;23;20045;-73
2022/05/15 10:00:01;;;;;;;1.63;1.15;;;;;;;;;;6127104;23;20006;-73
2022/05/15 10:03:03;;;;;;;0.50;0.50;;;;;;;;;;6127765;23;20010;-73
2022/05/15 10:05:34;;;;;;;6.65;1.27;;;;;;;;;;6127031;23;20034;-73
2022/05/15 10:08:22;;;;;;;3.08;1.25;;;;;;;;;;6127029;23;20006;-73
2022/05/15 10:10:54;;;;;;;1.27;0.90;;;;;;;;;;6128682;23;20006;-73
2022/05/15 10:13:33;;;;;;;0.45;0.45;;;;;;;;;;6127812;23;20010;-74
2022/05/15 10:16:09;;;;;;;0.40;0.40;;;;;;;;;;6126632;23;20365;-74
2022/05/15 10:18:57;;;;;;;0.20;0.20;;;;;;;;;;6127966;23;20068;-74
2022/05/15 10:21:25;;;;;;;3.10;0.73;;;;;;;;;;6127882;23;20005;-73
2022/05/15 10:24:00;;;;;;;10.52;1.05;;;;;;;;;;6126612;23;20002;-74
2022/05/15 10:26:33;;;;;;;0.45;0.43;;;;;;;;;;6127441;23;19998;-74
2022/05/15 10:29:36;;;;;;;0.65;0.65;;;;;;;;;;6102047;23;20013;-75
2022/05/15 10:32:11;;;;;;;0.93;0.55;;;;;;;;;;6126251;23;20006;-74
2022/05/15 10:34:41;;;;;;;0.45;0.38;;;;;;;;;;6151196;23;20005;-74
2022/05/15 10:37:08;;;;;;;0.75;0.63;;;;;;;;;;6127459;23;20391;-73
2022/05/15 10:39:49;;;;;;;4.80;0.50;;;;;;;;;;6127596;23;20417;-73
2022/05/15 10:42:52;;;;;;;0.77;0.73;;;;;;;;;;6126249;23;20033;-73
2022/05/15 10:45:22;;;;;;;0.40;0.40;;;;;;;;;;6126287;23;20005;-73
2022/05/15 10:48:24;;;;;;;0.10;0.10;;;;;;;;;;6125758;23;20002;-74
2022/05/15 10:51:16;;;;;;;0.70;0.43;;;;;;;;;;6127319;23;20136;-74
2022/05/15 10:59:53;;;;;;;1.65;1.00;;;;;;;;;;6127251;23;20025;-78
2022/05/15 11:03:04;;;;;;;1.80;0.75;;;;;;;;;;6127714;23;20410;-77
2022/05/15 11:05:39;;;;;;;4.13;0.97;;;;;;;;;;6118557;23;20287;-75
2022/05/15 11:08:33;;;;;;;1.00;0.80;;;;;;;;;;6127368;23;20300;-75
2022/05/15 11:11:21;;;;;;;0.98;0.93;;;;;;;;;;6126684;23;20016;-75
2022/05/15 11:13:54;;;;;;;1.65;0.50;;;;;;;;;;6127025;23;20009;-75
2022/05/15 11:16:28;;;;;;;0.50;0.47;;;;;;;;;;6127623;23;20011;-74
2022/05/15 11:19:21;;;;;;;2.95;1.45;;;;;;;;;;6126622;23;20009;-75
2022/05/15 11:21:57;;;;;;;0.95;0.65;;;;;;;;;;6127290;23;20006;-75
2022/05/15 11:25:06;;;;;;;0.40;0.40;;;;;;;;;;6127547;23;20066;-75
2022/05/15 11:27:37;;;;;;;1.50;1.27;;;;;;;;;;6066549;23;20015;-75
2022/05/15 11:30:27;;;;;;;1.40;0.65;;;;;;;;;;6066081;23;20010;-75
2022/05/15 11:32:54;;;;;;;0.70;0.70;;;;;;;;;;6043177;23;20003;-75
2022/05/15 11:35:22;;;;;;;0.88;0.50;;;;;;;;;;6067103;23;20003;-75
2022/05/15 11:37:57;;;;;;;1.25;0.73;;;;;;;;;;6066999;23;20082;-75
2022/05/15 11:40:42;;;;;;;0.60;0.50;;;;;;;;;;6043126;23;20010;-75
2022/05/15 11:43:28;;;;;;;0.55;0.50;;;;;;;;;;6043498;23;20579;-75
2022/05/15 11:45:54;;;;;;;0.55;0.55;;;;;;;;;;6067056;23;20007;-75
2022/05/15 11:48:27;;;;;;;0.30;0.30;;;;;;;;;;6044145;23;20003;-75
2022/05/15 11:51:04;;;;;;;6.18;2.17;;;;;;;;;;6066804;23;20296;-75
2022/05/15 11:53:55;;;;;;;3.97;0.40;;;;;;;;;;6042996;23;20011;-75
2022/05/15 11:56:26;;;;;;;0.50;0.50;;;;;;;;;;6042930;23;20091;-75
2022/05/15 11:58:57;;;;;;;1.00;0.38;;;;;;;;;;6107194;23;20006;-75
2022/05/15 12:01:28;;;;;;;0.85;0.85;;;;;;;;;;6127471;23;20059;-75
2022/05/15 12:03:59;;;;;;;0.70;0.70;;;;;;;;;;6127461;23;20002;-75
2022/05/15 12:06:32;;;;;;;0.52;0.45;;;;;;;;;;6151210;23;20326;-75
2022/05/15 12:09:33;;;;;;;0.77;0.77;;;;;;;;;;6126102;23;20010;-75
2022/05/15 12:12:24;;;;;;;0.45;0.45;;;;;;;;;;6108364;23;20081;-75
2022/05/15 12:15:10;;;;;;;1.13;0.30;;;;;;;;;;6127227;23;20041;-75
2022/05/15 12:17:40;;;;;;;1.50;0.63;;;;;;;;;;6126447;23;20006;-74
2022/05/15 12:20:22;;;;;;;1.20;0.75;;;;;;;;;;6126026;23;20033;-75
2022/05/15 12:22:56;;;;;;;0.60;0.60;;;;;;;;;;6126440;23;20010;-74
2022/05/15 12:25:31;;;;;;;3.63;1.40;;;;;;;;;;6128108;23;20013;-74
2022/05/15 12:31:16;;;;;;;2.20;1.00;;;;;;;;;;6126091;23;20127;-74
2022/05/15 12:33:44;;;;;;;0.25;0.17;;;;;;;;;;6127680;23;20009;-74
2022/05/15 12:36:13;;;;;;;2.65;0.90;;;;;;;;;;6127563;23;20017;-74
2022/05/15 12:38:45;;;;;;;1.20;0.50;;;;;;;;;;6128905;23;20002;-74
2022/05/15 12:41:19;;;;;;;1.30;1.00;;;;;;;;;;6129042;23;20009;-74
2022/05/15 12:43:49;;;;;;;0.90;0.75;;;;;;;;;;6128907;23;20009;-74
2022/05/15 12:46:32;;;;;;;0.90;0.65;;;;;;;;;;6127319;23;20080;-74
2022/05/15 12:48:58;;;;;;;0.68;0.68;;;;;;;;;;6128858;23;20303;-74
2022/05/15 12:51:29;;;;;;;0.65;0.35;;;;;;;;;;6128603;23;20006;-74
2022/05/15 12:53:55;;;;;;;1.17;0.60;;;;;;;;;;6152370;23;20085;-74
2022/05/15 12:56:24;;;;;;;2.00;0.40;;;;;;;;;;6128664;23;20006;-74
2022/05/15 12:58:57;;;;;;;0.30;0.30;;;;;;;;;;6128877;23;20012;-74
2022/05/15 13:01:29;;;;;;;0.75;0.55;;;;;;;;;;6128970;23;20397;-74
2022/05/15 13:03:59;;;;;;;1.83;1.15;;;;;;;;;;6128861;23;20409;-74
2022/05/15 13:06:57;;;;;;;0.32;0.32;;;;;;;;;;6127759;23;20089;-74
2022/05/15 13:09:25;;;;;;;0.35;0.35;;;;;;;;;;6128572;23;20405;-74
2022/05/15 13:11:59;;;;;;;1.33;0.95;;;;;;;;;;6127116;23;20089;-74
2022/05/15 13:14:30;;;;;;;3.38;1.00;;;;;;;;;;6129987;23;20018;-74
2022/05/15 13:16:58;;;;;;;0.75;0.63;;;;;;;;;;6103063;23;20013;-73
2022/05/15 13:19:29;;;;;;;0.35;0.35;;;;;;;;;;6151558;23;20393;-73
2022/05/15 13:21:56;;;;;;;3.50;0.85;;;;;;;;;;6127507;23;20033;-73
2022/05/15 13:24:23;;;;;;;0.35;0.35;;;;;;;;;;6128531;23;20005;-73
2022/05/15 13:26:51;;;;;;;0.45;0.30;;;;;;;;;;6127276;23;20006;-73
2022/05/15 13:29:24;;;;;;;2.63;0.70;;;;;;;;;;6151915;23;20492;-73
2022/05/15 13:31:53;;;;;;;1.15;0.47;;;;;;;;;;6127871;23;20009;-74
2022/05/15 13:34:31;;;;;;;0.80;0.63;;;;;;;;;;6151800;23;20081;-73
2022/05/15 13:36:59;;;;;;;1.05;0.60;;;;;;;;;;6149526;23;20010;-73
2022/05/15 13:45:05;;;;;;;0.55;0.55;;;;;;;;;;6128306;23;20052;-73
2022/05/15 13:47:30;;;;;;;1.65;0.80;;;;;;;;;;6126793;23;20331;-73
2022/05/15 13:49:56;;;;;;;0.43;0.43;;;;;;;;;;6128370;23;20045;-73
2022/05/15 13:52:37;;;;;;;2.20;1.00;;;;;;;;;;6128199;23;20401;-73
2022/05/15 13:55:07;;;;;;;3.03;0.75;;;;;;;;;;6128265;23;20010;-74
2022/05/15 13:57:33;;;;;;;5.18;0.80;;;;;;;;;;6126968;23;20002;-73
2022/05/15 14:00:25;;;;;;;0.40;0.40;;;;;;;;;;6151703;23;20009;-73
2022/05/15 14:03:05;;;;;;;0.35;0.35;;;;;;;;;;6126664;23;20448;-73
2022/05/15 14:05:36;;;;;;;0.60;0.60;;;;;;;;;;6151619;23;20002;-73
2022/05/15 14:08:19;;;;;;;1.67;0.75;;;;;;;;;;6126959;23;20001;-73
2022/05/15 14:10:47;;;;;;;4.82;0.68;;;;;;;;;;6127877;23;20025;-73
2022/05/15 14:13:16;;;;;;;0.40;0.40;;;;;;;;;;6151260;23;20069;-73
2022/05/15 14:15:51;;;;;;;0.30;0.30;;;;;;;;;;6150634;23;20002;-73
2022/05/15 14:18:19;;;;;;;3.50;1.00;;;;;;;;;;6126777;23;20002;-73
2022/05/15 14:20:49;;;;;;;0.98;0.75;;;;;;;;;;6127821;23;20064;-73
2022/05/15 14:23:15;;;;;;;1.00;0.90;;;;;;;;;;6151358;23;20430;-73
2022/05/15 14:25:43;;;;;;;0.47;0.47;;;;;;;;;;6126584;23;20010;-73
2022/05/15 14:28:13;;;;;;;5.45;0.45;;;;;;;;;;6127243;23;20005;-73
2022/05/15 14:30:38;;;;;;;0.50;0.45;;;;;;;;;;6151206;23;20002;-73
2022/05/15 14:33:06;;;;;;;1.38;1.00;;;;;;;;;;6126745;23;20006;-73
2022/05/15 14:35:41;;;;;;;2.22;0.68;;;;;;;;;;6127849;23;20395;-73
2022/05/15 14:38:12;;;;;;;0.68;0.65;;;;;;;;;;6126532;23;20002;-73
2022/05/15 14:40:38;;;;;;;1.23;0.80;;;;;;;;;;6127831;23;20017;-73
2022/05/15 14:43:03;;;;;;;4.07;0.80;;;;;;;;;;6127333;23;20305;-73
2022/05/15 14:45:30;;;;;;;0.60;0.60;;;;;;;;;;6127722;23;20064;-73
2022/05/15 14:48:02;;;;;;;1.48;0.73;;;;;;;;;;6126512;23;20390;-73
2022/05/15 14:50:31;;;;;;;1.02;0.75;;;;;;;;;;6127930;23;20009;-73
2022/05/15 14:52:58;;;;;;;1.30;0.50;;;;;;;;;;6126720;23;20068;-73
2022/05/15 14:58:11;;;;;;;0.45;0.43;;;;;;;;;;6127779;23;20021;-73
2022/05/15 15:00:39;;;;;;;0.40;0.40;;;;;;;;;;6126663;23;20005;-73
2022/05/15 15:03:04;;;;;;;1.55;0.95;;;;;;;;;;6127736;23;20005;-73
2022/05/15 15:05:44;;;;;;;1.05;0.52;;;;;;;;;;6101929;23;20009;-73
2022/05/15 15:08:22;;;;;;;1.67;1.00;;;;;;;;;;6126540;23;20306;-73
2022/05/15 15:10:48;;;;;;;1.10;0.43;;;;;;;;;;6150665;23;20376;-73
2022/05/15 15:13:15;;;;;;;0.30;0.30;;;;;;;;;;6127592;23;20072;-73
2022/05/15 15:15:44;;;;;;;1.40;0.60;;;;;;;;;;6126671;23;20049;-73
2022/05/15 15:18:10;;;;;;;2.90;0.80;;;;;;;;;;6126215;23;20006;-73
2022/05/15 15:20:40;;;;;;;0.45;0.45;;;;;;;;;;6127680;23;20006;-73
2022/05/15 15:23:05;;;;;;;1.52;0.82;;;;;;;;;;6150956;23;20006;-73
2022/05/15 15:25:31;;;;;;;0.55;0.50;;;;;;;;;;6127541;23;20342;-73
2022/05/15 15:27:57;;;;;;;7.55;2.20;;;;;;;;;;6126583;23;20025;-73
2022/05/15 15:30:25;;;;;;;0.57;0.30;;;;;;;;;;6127613;23;20010;-74
2022/05/15 15:32:50;;;;;;;0.88;0.60;;;;;;;;;;6126459;23;20005;-73
2022/05/15 15:35:16;;;;;;;0.38;0.38;;;;;;;;;;6127545;23;20032;-73
2022/05/15 15:40:54;;;;;;;4.75;1.80;;;;;;;;;;6127103;23;20077;-73
2022/05/15 15:43:25;;;;;;;0.45;0.45;;;;;;;;;;6127368;23;20072;-73